createdAt,value
2023-02-25T00:01:24.687Z,4.10
2023-02-25T00:03:54.243Z,4.10
2023-02-25T00:06:27.085Z,4.10
2023-02-25T00:08:55.587Z,4.30
2023-02-25T00:11:25.484Z,4.00
2023-02-25T00:13:53.936Z,4.00
2023-02-25T00:16:27.092Z,4.00
2023-02-25T00:18:56.651Z,4.00
2023-02-25T00:21:29.587Z,3.90
2023-02-25T00:24:04.467Z,3.90
2023-02-25T00:26:42.592Z,3.80
2023-02-25T00:29:10.792Z,3.80
2023-02-25T00:31:39.070Z,3.80
2023-02-25T00:34:07.283Z,3.80
2023-02-25T00:36:36.682Z,3.80
2023-02-25T00:39:05.053Z,3.80
2023-02-25T00:41:33.127Z,3.90
2023-02-25T00:44:02.877Z,3.80
2023-02-25T00:46:31.813Z,3.90
2023-02-25T00:49:00.682Z,3.90
2023-02-25T00:51:30.531Z,3.90
2023-02-25T00:54:00.478Z,3.90
2023-02-25T00:56:29.089Z,3.90
2023-02-25T00:58:57.215Z,3.90
2023-02-25T01:01:27.745Z,3.90
2023-02-25T01:03:57.644Z,3.90
2023-02-25T01:06:27.439Z,3.80
2023-02-25T01:08:56.413Z,3.90
2023-02-25T01:11:29.203Z,4.00
2023-02-25T01:13:58.229Z,3.90
2023-02-25T01:16:27.887Z,3.90
2023-02-25T01:18:57.545Z,3.90
2023-02-25T01:21:27.551Z,3.90
2023-02-25T01:23:58.759Z,3.80
2023-02-25T01:26:30.036Z,4.00
2023-02-25T01:28:58.046Z,3.80
2023-02-25T01:31:29.421Z,4.00
2023-02-25T01:33:59.208Z,3.90
2023-02-25T01:36:28.268Z,3.90
2023-02-25T01:38:56.616Z,3.90
2023-02-25T01:41:25.985Z,3.90
2023-02-25T01:44:11.211Z,3.90
2023-02-25T01:46:40.686Z,3.90
2023-02-25T01:49:12.224Z,3.90
2023-02-25T01:51:40.611Z,3.90
2023-02-25T01:54:10.909Z,3.90
2023-02-25T01:56:41.365Z,4.00
2023-02-25T01:59:13.287Z,4.10
2023-02-25T02:01:42.267Z,3.80
2023-02-25T02:04:15.373Z,3.80
2023-02-25T02:06:45.073Z,3.80
2023-02-25T02:09:15.503Z,3.80
2023-02-25T02:11:44.084Z,3.70
2023-02-25T02:14:16.947Z,3.70
2023-02-25T02:17:11.018Z,3.70
2023-02-25T02:20:09.902Z,3.70
2023-02-25T02:22:45.901Z,3.70
2023-02-25T02:25:39.149Z,3.60
2023-02-25T02:28:27.490Z,3.80
2023-02-25T02:31:16.286Z,3.90
2023-02-25T02:33:49.865Z,3.70
2023-02-25T02:36:25.650Z,3.70
2023-02-25T02:38:59.571Z,3.80
2023-02-25T02:41:35.509Z,3.70
2023-02-25T02:44:07.953Z,3.80
2023-02-25T02:46:40.078Z,3.80
2023-02-25T02:49:13.198Z,3.80
2023-02-25T02:51:47.493Z,3.80
2023-02-25T02:54:17.238Z,3.80
2023-02-25T02:56:48.030Z,3.90
2023-02-25T02:59:21.852Z,3.80
2023-02-25T03:01:55.070Z,3.80
2023-02-25T03:04:29.084Z,3.80
2023-02-25T03:07:02.972Z,3.80
2023-02-25T03:09:35.008Z,3.80
2023-02-25T03:12:03.318Z,3.80
2023-02-25T03:14:31.803Z,3.80
2023-02-25T03:17:05.775Z,3.80
2023-02-25T03:19:38.676Z,3.80
2023-02-25T03:22:12.130Z,3.80
2023-02-25T03:24:46.536Z,3.80
2023-02-25T03:27:27.077Z,3.80
2023-02-25T03:30:03.721Z,3.80
2023-02-25T03:32:37.481Z,3.80
2023-02-25T03:35:09.267Z,3.80
2023-02-25T03:37:41.352Z,3.80
2023-02-25T03:40:13.407Z,3.90
2023-02-25T03:42:45.705Z,3.90
2023-02-25T03:45:16.614Z,3.90
2023-02-25T03:47:46.315Z,3.80
2023-02-25T03:50:19.618Z,4.00
2023-02-25T03:52:47.852Z,3.80
2023-02-25T03:55:17.829Z,4.00
2023-02-25T03:57:49.469Z,4.00
2023-02-25T04:00:22.852Z,4.00
2023-02-25T04:02:52.750Z,3.90
2023-02-25T04:05:22.893Z,3.90
2023-02-25T04:07:51.097Z,3.90
2023-02-25T04:10:19.360Z,3.90
2023-02-25T04:12:49.850Z,3.90
2023-02-25T04:15:18.076Z,3.90
2023-02-25T04:17:46.902Z,4.00
2023-02-25T04:20:17.294Z,4.00
2023-02-25T04:22:45.432Z,3.90
2023-02-25T04:25:13.480Z,3.90
2023-02-25T04:27:41.472Z,3.90
2023-02-25T04:30:10.821Z,3.90
2023-02-25T04:32:38.973Z,3.90
2023-02-25T04:35:11.671Z,3.80
2023-02-25T04:37:41.610Z,3.80
2023-02-25T04:40:15.092Z,3.90
2023-02-25T04:42:43.698Z,3.80
2023-02-25T04:45:13.351Z,3.80
2023-02-25T04:47:41.445Z,3.80
2023-02-25T04:50:12.646Z,3.90
2023-02-25T04:52:42.040Z,3.80
2023-02-25T04:55:10.858Z,3.80
2023-02-25T04:57:42.312Z,3.80
2023-02-25T05:00:19.214Z,3.80
2023-02-25T05:02:48.948Z,3.70
2023-02-25T05:05:17.911Z,3.70
2023-02-25T05:07:47.487Z,3.80
2023-02-25T05:10:16.333Z,3.80
2023-02-25T05:12:44.476Z,4.00
2023-02-25T05:15:13.236Z,3.80
2023-02-25T05:17:41.348Z,3.70
2023-02-25T05:20:13.089Z,3.80
2023-02-25T05:22:41.711Z,3.70
2023-02-25T05:25:12.405Z,3.70
2023-02-25T05:27:40.508Z,3.70
2023-02-25T05:30:10.004Z,3.70
2023-02-25T05:32:38.943Z,3.70
2023-02-25T05:35:09.850Z,3.70
2023-02-25T05:37:38.368Z,3.70
2023-02-25T05:40:09.402Z,3.70
2023-02-25T05:42:38.837Z,3.60
2023-02-25T05:45:08.407Z,3.60
2023-02-25T05:47:36.556Z,3.50
2023-02-25T05:50:04.833Z,3.50
2023-02-25T05:52:32.856Z,3.50
2023-02-25T05:55:01.768Z,3.50
2023-02-25T05:57:29.918Z,3.80
2023-02-25T05:59:59.305Z,3.60
2023-02-25T06:02:27.353Z,3.70
2023-02-25T06:04:55.712Z,3.70
2023-02-25T06:07:23.680Z,3.50
2023-02-25T06:09:51.702Z,3.50
2023-02-25T06:12:19.727Z,3.40
2023-02-25T06:14:47.763Z,3.40
2023-02-25T06:17:17.142Z,3.40
2023-02-25T06:19:45.634Z,3.50
2023-02-25T06:22:13.836Z,3.40
2023-02-25T06:24:41.850Z,3.40
2023-02-25T06:27:09.845Z,3.40
2023-02-25T06:29:41.910Z,3.40
2023-02-25T06:32:10.346Z,3.40
2023-02-25T06:34:40.685Z,3.40
2023-02-25T06:37:09.495Z,3.40
2023-02-25T06:39:37.639Z,3.40
2023-02-25T06:42:05.887Z,3.40
2023-02-25T06:44:33.933Z,3.40
2023-02-25T06:47:01.945Z,3.40
2023-02-25T06:49:31.196Z,3.40
2023-02-25T06:52:00.612Z,3.40
2023-02-25T06:54:31.248Z,3.70
2023-02-25T06:57:00.767Z,3.70
2023-02-25T06:59:28.867Z,3.40
2023-02-25T07:01:56.880Z,3.40
2023-02-25T07:04:24.984Z,3.50
2023-02-25T07:06:53.125Z,3.50
2023-02-25T07:09:22.558Z,3.70
2023-02-25T07:11:50.610Z,3.50
2023-02-25T07:14:18.657Z,3.60
2023-02-25T07:16:46.756Z,3.70
2023-02-25T07:19:16.608Z,3.70
2023-02-25T07:21:45.205Z,3.70
2023-02-25T07:24:14.216Z,3.70
2023-02-25T07:26:43.635Z,3.70
2023-02-25T07:29:13.783Z,3.80
2023-02-25T07:31:42.165Z,3.80
2023-02-25T07:34:11.262Z,3.80
2023-02-25T07:36:39.646Z,3.80
2023-02-25T07:39:10.236Z,3.80
2023-02-25T07:41:38.705Z,3.90
2023-02-25T07:44:09.448Z,3.90
2023-02-25T07:46:38.833Z,3.90
2023-02-25T07:49:06.921Z,4.00
2023-02-25T07:51:35.397Z,4.10
2023-02-25T07:54:03.692Z,4.10
2023-02-25T07:56:32.791Z,4.20
2023-02-25T07:59:01.269Z,4.20
2023-02-25T08:01:33.206Z,4.20
2023-02-25T08:04:05.477Z,4.30
2023-02-25T08:06:37.652Z,4.30
2023-02-25T08:09:06.154Z,4.30
2023-02-25T08:11:34.371Z,4.30
2023-02-25T08:14:02.654Z,4.40
2023-02-25T08:16:35.276Z,4.40
2023-02-25T08:19:03.885Z,4.50
2023-02-25T08:21:32.269Z,4.40
2023-02-25T08:24:00.817Z,4.50
2023-02-25T08:26:28.877Z,4.50
2023-02-25T08:28:57.954Z,4.60
2023-02-25T08:31:26.867Z,4.80
2023-02-25T08:33:58.050Z,5.10
2023-02-25T08:36:28.579Z,5.50
2023-02-25T08:38:58.365Z,5.80
2023-02-25T08:41:27.673Z,6.20
2023-02-25T08:43:57.464Z,7.00
2023-02-25T08:46:27.119Z,7.40
2023-02-25T08:48:57.287Z,7.60
2023-02-25T08:51:33.851Z,8.50
2023-02-25T08:54:04.041Z,9.20
2023-02-25T08:56:32.422Z,9.00
2023-02-25T08:59:03.840Z,8.60
2023-02-25T09:01:44.863Z,8.10
2023-02-25T09:04:15.163Z,7.80
2023-02-25T09:06:43.639Z,7.30
2023-02-25T09:09:13.433Z,6.90
2023-02-25T09:11:41.847Z,6.50
2023-02-25T09:14:10.786Z,6.30
2023-02-25T09:16:39.414Z,6.50
2023-02-25T09:19:07.656Z,6.70
2023-02-25T09:21:40.441Z,6.80
2023-02-25T09:24:09.675Z,6.50
2023-02-25T09:26:37.867Z,6.20
2023-02-25T09:29:06.966Z,6.00
2023-02-25T09:31:37.071Z,6.00
2023-02-25T09:34:07.705Z,5.90
2023-02-25T09:36:37.759Z,5.80
2023-02-25T09:39:10.203Z,5.80
2023-02-25T09:41:45.400Z,5.70
2023-02-25T09:44:16.673Z,5.70
2023-02-25T09:46:51.898Z,5.60
2023-02-25T09:49:26.031Z,5.50
2023-02-25T09:52:02.965Z,5.30
2023-02-25T09:54:36.040Z,5.30
2023-02-25T09:57:07.369Z,5.70
2023-02-25T09:59:37.939Z,6.60
2023-02-25T10:02:21.876Z,8.20
2023-02-25T10:04:58.726Z,9.60
2023-02-25T10:07:35.040Z,11.30
2023-02-25T10:10:09.805Z,12.00
2023-02-25T10:12:43.118Z,11.70
2023-02-25T10:15:36.969Z,11.80
2023-02-25T10:18:15.538Z,11.80
2023-02-25T10:20:53.105Z,12.80
2023-02-25T10:23:37.755Z,14.20
2023-02-25T10:26:14.300Z,15.80
2023-02-25T10:28:45.777Z,16.40
2023-02-25T10:31:17.100Z,16.20
2023-02-25T10:33:47.712Z,15.70
2023-02-25T10:36:18.830Z,15.10
2023-02-25T10:38:51.362Z,13.40
2023-02-25T10:41:22.910Z,11.70
2023-02-25T10:43:52.279Z,10.60
2023-02-25T10:46:26.402Z,9.50
2023-02-25T10:48:58.665Z,8.40
2023-02-25T10:51:28.376Z,7.40
2023-02-25T10:54:07.262Z,6.60
2023-02-25T10:56:42.517Z,6.10
2023-02-25T10:59:27.698Z,5.70
2023-02-25T11:01:57.604Z,5.40
2023-02-25T11:04:33.058Z,5.20
2023-02-25T11:07:01.175Z,4.90
2023-02-25T11:09:37.094Z,4.80
2023-02-25T11:12:17.609Z,4.60
2023-02-25T11:14:45.633Z,4.50
2023-02-25T11:17:20.264Z,4.50
2023-02-25T11:19:51.777Z,4.60
2023-02-25T11:22:23.323Z,5.00
2023-02-25T11:25:01.310Z,4.80
2023-02-25T11:27:38.876Z,5.00
2023-02-25T11:30:16.872Z,5.50
2023-02-25T11:32:47.563Z,6.10
2023-02-25T11:35:19.477Z,7.10
2023-02-25T11:37:48.703Z,7.60
2023-02-25T11:40:28.824Z,7.60
2023-02-25T11:43:17.089Z,8.20
2023-02-25T11:45:55.849Z,8.80
2023-02-25T11:48:27.111Z,9.10
2023-02-25T11:51:04.951Z,8.60
2023-02-25T11:53:47.175Z,8.20
2023-02-25T11:56:25.195Z,7.80
2023-02-25T11:59:07.182Z,7.40
2023-02-25T12:02:03.304Z,7.00
2023-02-25T12:04:56.978Z,7.30
2023-02-25T12:08:12.406Z,7.70
2023-02-25T12:11:05.612Z,7.80
2023-02-25T12:14:16.049Z,7.60
2023-02-25T12:17:17.641Z,7.30
2023-02-25T12:20:17.844Z,6.90
2023-02-25T12:23:19.095Z,6.90
2023-02-25T12:25:53.540Z,7.40
2023-02-25T12:29:03.665Z,7.60
2023-02-25T12:31:54.780Z,7.30
2023-02-25T12:34:51.454Z,6.80
2023-02-25T12:37:38.151Z,6.70
2023-02-25T12:40:24.945Z,6.70
2023-02-25T12:43:03.961Z,6.90
2023-02-25T12:45:59.213Z,7.60
2023-02-25T12:49:00.951Z,7.60
2023-02-25T12:51:46.919Z,7.50
2023-02-25T12:54:35.970Z,7.40
2023-02-25T12:57:28.355Z,7.40
2023-02-25T13:00:30.953Z,7.60
2023-02-25T13:03:21.264Z,7.60
2023-02-25T13:06:08.776Z,7.20
2023-02-25T13:08:50.473Z,7.10
2023-02-25T13:11:31.180Z,7.00
2023-02-25T13:14:32.313Z,6.80
2023-02-25T13:17:37.893Z,6.90
2023-02-25T13:20:44.978Z,7.10
2023-02-25T13:23:42.123Z,7.20
2023-02-25T13:26:24.743Z,7.20
2023-02-25T13:29:12.978Z,7.10
2023-02-25T13:31:50.241Z,6.90
2023-02-25T13:34:30.645Z,6.60
2023-02-25T13:37:21.397Z,6.80
2023-02-25T13:40:05.341Z,6.80
2023-02-25T13:42:56.091Z,6.80
2023-02-25T13:45:42.387Z,6.60
2023-02-25T13:48:29.093Z,6.50
2023-02-25T13:51:11.857Z,6.40
2023-02-25T13:53:57.274Z,6.00
2023-02-25T13:56:46.148Z,5.80
2023-02-25T13:59:29.441Z,5.80
2023-02-25T14:02:04.164Z,5.70
2023-02-25T14:04:57.957Z,5.60
2023-02-25T14:07:56.887Z,5.50
2023-02-25T14:10:43.652Z,5.50
2023-02-25T14:13:49.424Z,6.20
2023-02-25T14:16:32.956Z,6.80
2023-02-25T14:19:16.530Z,6.80
2023-02-25T14:22:13.268Z,6.60
2023-02-25T14:24:47.047Z,6.30
2023-02-25T14:27:27.154Z,6.10
2023-02-25T14:30:16.027Z,5.90
2023-02-25T14:33:00.816Z,6.00
2023-02-25T14:35:45.020Z,5.90
2023-02-25T14:38:15.738Z,5.70
2023-02-25T14:40:50.747Z,5.50
2023-02-25T14:43:33.269Z,5.40
2023-02-25T14:46:10.826Z,5.30
2023-02-25T14:48:45.674Z,5.10
2023-02-25T14:51:49.585Z,5.00
2023-02-25T14:54:55.177Z,5.00
2023-02-25T14:57:50.627Z,5.00
2023-02-25T15:00:45.608Z,5.10
2023-02-25T15:03:44.845Z,5.30
2023-02-25T15:06:27.709Z,5.50
2023-02-25T15:09:49.403Z,5.30
2023-02-25T15:12:30.794Z,5.40
2023-02-25T15:15:16.111Z,5.30
2023-02-25T15:18:18.690Z,5.20
2023-02-25T15:20:49.261Z,5.10
2023-02-25T15:23:19.931Z,5.20
2023-02-25T15:25:53.266Z,5.20
2023-02-25T15:28:42.355Z,5.10
2023-02-25T15:31:32.915Z,5.10
2023-02-25T15:34:39.684Z,4.90
2023-02-25T15:37:28.378Z,4.70
2023-02-25T15:39:57.940Z,4.60
2023-02-25T15:42:51.466Z,4.50
2023-02-25T15:45:41.952Z,4.40
2023-02-25T15:48:36.017Z,4.30
2023-02-25T15:51:06.389Z,4.20
2023-02-25T15:53:57.119Z,4.10
2023-02-25T15:56:31.489Z,4.00
2023-02-25T15:59:00.669Z,4.00
2023-02-25T16:01:43.555Z,3.90
2023-02-25T16:04:48.938Z,3.80
2023-02-25T16:07:21.166Z,3.80
2023-02-25T16:09:57.049Z,3.90
2023-02-25T16:12:26.129Z,3.50
2023-02-25T16:14:56.720Z,3.40
2023-02-25T16:17:30.132Z,3.60
2023-02-25T16:20:05.852Z,3.20
2023-02-25T16:22:34.453Z,3.20
2023-02-25T16:25:06.346Z,3.10
2023-02-25T16:27:45.940Z,3.10
2023-02-25T16:30:21.415Z,3.00
2023-02-25T16:32:59.410Z,2.90
2023-02-25T16:35:33.189Z,2.80
2023-02-25T16:38:10.394Z,2.70
2023-02-25T16:40:42.039Z,2.60
2023-02-25T16:43:15.165Z,2.50
2023-02-25T16:45:54.515Z,2.40
2023-02-25T16:48:28.742Z,2.30
2023-02-25T16:50:57.767Z,2.20
2023-02-25T16:53:28.705Z,2.20
2023-02-25T16:56:01.677Z,2.20
2023-02-25T16:58:31.560Z,2.20
2023-02-25T17:01:03.826Z,2.10
2023-02-25T17:03:46.812Z,2.10
2023-02-25T17:06:24.730Z,1.80
2023-02-25T17:08:53.174Z,1.80
2023-02-25T17:11:25.194Z,1.80
2023-02-25T17:13:55.777Z,1.70
2023-02-25T17:16:30.973Z,1.60
2023-02-25T17:19:03.939Z,1.50
2023-02-25T17:21:34.948Z,1.40
2023-02-25T17:24:06.291Z,1.20
2023-02-25T17:26:40.937Z,1.10
2023-02-25T17:29:13.026Z,1.10
2023-02-25T17:31:46.349Z,1.10
2023-02-25T17:34:17.743Z,1.10
2023-02-25T17:36:47.651Z,1.10
2023-02-25T17:39:18.310Z,1.10
2023-02-25T17:41:48.604Z,1.00
2023-02-25T17:44:45.207Z,1.00
2023-02-25T17:47:20.663Z,1.00
2023-02-25T17:49:50.577Z,0.90
2023-02-25T17:52:21.737Z,0.90
2023-02-25T17:54:57.190Z,0.80
2023-02-25T17:57:28.816Z,0.70
2023-02-25T18:00:00.472Z,0.70
2023-02-25T18:02:35.243Z,0.70
2023-02-25T18:05:25.805Z,0.60
2023-02-25T18:08:27.354Z,0.60
2023-02-25T18:10:58.485Z,0.50
2023-02-25T18:13:35.438Z,0.50
2023-02-25T18:16:48.366Z,0.40
2023-02-25T18:19:28.852Z,0.40
2023-02-25T18:21:59.241Z,0.60
2023-02-25T18:24:33.276Z,0.40
2023-02-25T18:27:07.419Z,0.40
2023-02-25T18:29:37.607Z,0.40
2023-02-25T18:32:05.923Z,0.40
2023-02-25T18:34:34.085Z,0.50
2023-02-25T18:37:03.852Z,0.60
2023-02-25T18:39:33.769Z,0.50
2023-02-25T18:42:01.936Z,0.50
2023-02-25T18:44:30.221Z,0.50
2023-02-25T18:46:59.756Z,0.50
2023-02-25T18:49:28.103Z,0.40
2023-02-25T18:51:56.251Z,0.40
2023-02-25T18:54:24.528Z,0.30
2023-02-25T18:56:52.603Z,0.30
2023-02-25T18:59:20.750Z,0.20
2023-02-25T19:01:49.290Z,0.40
2023-02-25T19:04:19.733Z,0.10
2023-02-25T19:06:48.121Z,0.20
2023-02-25T19:09:16.487Z,0.20
2023-02-25T19:11:46.954Z,0.20
2023-02-25T19:14:19.832Z,0.30
2023-02-25T19:16:48.158Z,0.20
2023-02-25T19:19:16.362Z,0.50
2023-02-25T19:21:47.905Z,0.20
2023-02-25T19:24:16.224Z,0.20
2023-02-25T19:26:45.945Z,0.10
2023-02-25T19:29:14.226Z,0.30
2023-02-25T19:31:42.534Z,0.40
2023-02-25T19:34:10.793Z,0.10
2023-02-25T19:36:39.000Z,0.30
2023-02-25T19:39:08.492Z,0.00
2023-02-25T19:41:38.517Z,-0.10
2023-02-25T19:44:06.904Z,-0.20
2023-02-25T19:46:35.149Z,-0.20
2023-02-25T19:49:03.436Z,-0.30
2023-02-25T19:51:31.666Z,-0.30
2023-02-25T19:53:59.915Z,-0.20
2023-02-25T19:56:29.538Z,-0.60
2023-02-25T19:58:58.702Z,-0.50
2023-02-25T20:01:27.810Z,-0.50
2023-02-25T20:03:56.209Z,-0.50
2023-02-25T20:06:26.305Z,-0.50
2023-02-25T20:08:55.940Z,-0.50
2023-02-25T20:11:24.524Z,-0.50
2023-02-25T20:13:54.225Z,-0.40
2023-02-25T20:16:24.381Z,-0.40
2023-02-25T20:18:53.525Z,-0.40
2023-02-25T20:21:21.798Z,-0.30
2023-02-25T20:23:50.098Z,-0.30
2023-02-25T20:26:20.108Z,-0.20
2023-02-25T20:28:48.515Z,-0.20
2023-02-25T20:31:19.625Z,-0.10
2023-02-25T20:33:49.635Z,-0.10
2023-02-25T20:36:21.814Z,0.00
2023-02-25T20:39:26.480Z,0.10
2023-02-25T20:41:55.259Z,0.20
2023-02-25T20:44:23.775Z,0.20
2023-02-25T20:46:54.075Z,0.30
2023-02-25T20:49:22.497Z,0.40
2023-02-25T20:51:51.310Z,0.50
2023-02-25T20:54:20.590Z,0.60
2023-02-25T20:56:49.509Z,0.60
2023-02-25T20:59:19.259Z,0.70
2023-02-25T21:01:47.605Z,0.70
2023-02-25T21:04:17.317Z,0.70
2023-02-25T21:06:45.518Z,0.70
2023-02-25T21:09:13.726Z,0.70
2023-02-25T21:11:42.428Z,0.60
2023-02-25T21:14:10.781Z,0.60
2023-02-25T21:16:39.728Z,0.50
2023-02-25T21:19:08.814Z,0.40
2023-02-25T21:21:38.521Z,0.50
2023-02-25T21:24:07.652Z,0.40
2023-02-25T21:26:39.211Z,0.50
2023-02-25T21:29:07.882Z,0.60
2023-02-25T21:31:36.323Z,0.60
2023-02-25T21:34:04.964Z,0.70
2023-02-25T21:36:34.491Z,0.70
2023-02-25T21:39:04.857Z,0.70
2023-02-25T21:41:32.971Z,0.70
2023-02-25T21:44:01.097Z,0.70
2023-02-25T21:46:29.591Z,0.70
2023-02-25T21:48:58.061Z,0.80
2023-02-25T21:51:28.881Z,0.70
2023-02-25T21:53:58.139Z,0.80
2023-02-25T21:56:31.846Z,0.80
2023-02-25T21:59:02.631Z,0.80
2023-02-25T22:01:32.583Z,0.70
2023-02-25T22:04:01.103Z,0.80
2023-02-25T22:06:29.790Z,0.80
2023-02-25T22:08:58.630Z,0.70
2023-02-25T22:11:31.254Z,0.80
2023-02-25T22:14:00.876Z,0.60
2023-02-25T22:16:29.852Z,0.50
2023-02-25T22:18:58.637Z,0.50
2023-02-25T22:21:28.583Z,0.60
2023-02-25T22:23:58.516Z,0.30
2023-02-25T22:26:28.849Z,0.20
2023-02-25T22:29:00.277Z,0.20
2023-02-25T22:31:29.050Z,0.20
2023-02-25T22:33:58.270Z,0.30
2023-02-25T22:36:26.886Z,0.20
2023-02-25T22:38:56.558Z,0.20
2023-02-25T22:41:27.790Z,0.10
2023-02-25T22:43:56.276Z,0.10
2023-02-25T22:46:27.824Z,0.10
2023-02-25T22:48:56.560Z,0.00
2023-02-25T22:51:27.099Z,0.00
2023-02-25T22:53:56.166Z,-0.20
2023-02-25T22:56:25.812Z,-0.30
2023-02-25T22:58:54.317Z,-0.40
2023-02-25T23:01:24.464Z,-0.60
2023-02-25T23:03:55.140Z,-0.70
2023-02-25T23:06:34.176Z,-0.80
2023-02-25T23:09:02.520Z,-0.80
2023-02-25T23:11:32.852Z,-0.80
2023-02-25T23:14:03.144Z,-0.90
2023-02-25T23:16:33.491Z,-0.90
2023-02-25T23:19:05.421Z,-1.00
2023-02-25T23:21:34.544Z,-1.10
2023-02-25T23:24:03.176Z,-1.10
2023-02-25T23:26:33.712Z,-1.10
2023-02-25T23:29:04.250Z,-1.10
2023-02-25T23:31:34.746Z,-1.20
2023-02-25T23:34:08.853Z,-1.20
2023-02-25T23:36:37.887Z,-1.20
2023-02-25T23:39:07.770Z,-1.30
2023-02-25T23:41:37.736Z,-1.30
2023-02-25T23:44:08.404Z,-1.10
2023-02-25T23:46:37.551Z,-1.20
2023-02-25T23:49:10.975Z,-1.10
2023-02-25T23:51:42.413Z,-1.40
2023-02-25T23:54:13.289Z,-1.40
2023-02-25T23:56:41.468Z,-1.40
2023-02-25T23:59:10.493Z,-1.40
